Time;durP1;ratioP1;P1;durP2;ratioP2;P2;SDS_P1;SDS_P2;PMS_P1;PMS_P2;Temp;Humidity;BMP_temperature;BMP_pressure;BME280_temperature;BME280_humidity;BME280_pressure;Samples;Min_cycle;Max_cycle;Signal;HPM_P1;HPM_P2
2021/07/05 00:00:15;;;;;;;;;;;23.10;71.20;;;;;;3090199;28;19922;-80
2021/07/05 00:01:48;;;;;;;;;;;23.10;71.10;;;;;;3090738;28;19918;-80
2021/07/05 00:03:19;;;;;;;;;;;23.10;71.30;;;;;;3090682;28;19929;-81
2021/07/05 00:04:50;;;;;;;;;;;23.10;71.20;;;;;;3090552;28;19929;-81
2021/07/05 00:06:21;;;;;;;;;;;23.10;71.20;;;;;;3090125;28;19921;-81
2021/07/05 00:07:53;;;;;;;;;;;23.10;71.10;;;;;;3090739;28;19922;-80
2021/07/05 00:09:24;;;;;;;;;;;23.10;71.10;;;;;;3090900;28;19922;-78
2021/07/05 00:10:56;;;;;;;;;;;23.10;71.30;;;;;;3089629;28;20300;-81
2021/07/05 00:12:27;;;;;;;;;;;23.10;71.30;;;;;;3090517;28;19933;-78
2021/07/05 00:13:59;;;;;;;;;;;23.00;71.30;;;;;;3089887;28;19922;-78
2021/07/05 00:15:31;;;;;;;;;;;23.10;71.40;;;;;;3089836;28;19922;-78
2021/07/05 00:17:03;;;;;;;;;;;23.10;71.50;;;;;;3089815;28;19929;-78
2021/07/05 00:18:34;;;;;;;;;;;23.10;71.60;;;;;;3089553;28;19933;-78
2021/07/05 00:20:05;;;;;;;;;;;23.10;71.50;;;;;;3089792;28;19929;-77
2021/07/05 00:21:37;;;;;;;;;;;23.10;71.40;;;;;;3089475;28;19922;-78
2021/07/05 00:23:09;;;;;;;;;;;23.10;71.40;;;;;;3090723;28;19929;-80
2021/07/05 00:24:39;;;;;;;;;;;23.10;71.50;;;;;;3088772;28;20425;-78
2021/07/05 00:26:11;;;;;;;;;;;23.00;71.40;;;;;;3088095;28;19922;-81
2021/07/05 00:27:42;;;;;;;;;;;23.00;71.50;;;;;;3087837;28;19921;-77
2021/07/05 00:29:13;;;;;;;;;;;23.10;71.60;;;;;;3087882;28;19929;-78
2021/07/05 00:30:44;;;;;;;;;;;23.10;71.50;;;;;;3087929;28;20282;-78
2021/07/05 00:32:16;;;;;;;;;;;23.10;71.40;;;;;;3088133;28;20430;-77
2021/07/05 00:33:48;;;;;;;;;;;23.10;71.60;;;;;;3088406;28;19969;-78
2021/07/05 00:35:19;;;;;;;;;;;23.00;71.50;;;;;;3086880;28;20398;-78
2021/07/05 00:36:50;;;;;;;;;;;23.00;71.70;;;;;;3078750;28;19929;-77
2021/07/05 00:38:22;;;;;;;;;;;23.00;71.60;;;;;;3087638;28;19926;-78
2021/07/05 00:39:52;;;;;;;;;;;23.00;71.70;;;;;;3088733;28;20114;-78
2021/07/05 00:41:24;;;;;;;;;;;23.00;71.60;;;;;;3088085;28;19941;-78
2021/07/05 00:42:56;;;;;;;;;;;23.00;71.50;;;;;;3088015;28;20356;-79
2021/07/05 00:44:28;;;;;;;;;;;23.00;71.60;;;;;;3088452;28;19922;-79
2021/07/05 00:45:58;;;;;;;;;;;23.00;71.50;;;;;;3088690;28;20447;-77
2021/07/05 00:47:32;;;;;;;;;;;23.00;71.60;;;;;;3088905;28;20006;-79
2021/07/05 00:49:04;;;;;;;;;;;23.00;71.70;;;;;;3089202;28;19965;-78
2021/07/05 00:50:35;;;;;;;;;;;23.00;71.70;;;;;;3088352;28;19926;-78
2021/07/05 00:52:06;;;;;;;;;;;23.00;71.70;;;;;;3080717;28;19922;-77
2021/07/05 00:53:38;;;;;;;;;;;23.00;71.70;;;;;;3077205;29;19965;-78
2021/07/05 00:55:09;;;;;;;;;;;23.00;71.70;;;;;;3077435;28;19922;-80
2021/07/05 00:56:41;;;;;;;;;;;23.10;71.80;;;;;;3077542;29;19941;-80
2021/07/05 00:58:13;;;;;;;;;;;23.00;71.70;;;;;;3077934;28;19923;-80
2021/07/05 00:59:43;;;;;;;;;;;23.00;71.80;;;;;;3076623;29;19922;-81
2021/07/05 01:01:16;;;;;;;;;;;23.00;71.60;;;;;;3076616;29;19924;-79
2021/07/05 01:02:48;;;;;;;;;;;23.00;71.70;;;;;;3076972;28;19969;-78
2021/07/05 01:04:20;;;;;;;;;;;23.00;71.80;;;;;;3076785;28;19926;-80
2021/07/05 01:05:50;;;;;;;;;;;23.00;71.80;;;;;;3076610;29;19926;-80
2021/07/05 01:07:22;;;;;;;;;;;22.90;71.80;;;;;;3076720;28;19930;-80
2021/07/05 01:08:54;;;;;;;;;;;22.90;71.80;;;;;;3077094;29;19923;-78
2021/07/05 01:10:25;;;;;;;;;;;23.00;71.80;;;;;;3076669;29;20275;-82
2021/07/05 01:11:56;;;;;;;;;;;23.00;72.10;;;;;;3077084;29;19922;-78
2021/07/05 01:13:27;;;;;;;;;;;23.00;71.90;;;;;;3076691;29;19919;-80
2021/07/05 01:14:58;;;;;;;;;;;23.00;72.00;;;;;;3076889;28;19926;-81
2021/07/05 01:16:29;;;;;;;;;;;23.00;71.90;;;;;;3077098;29;19922;-81
2021/07/05 01:18:03;;;;;;;;;;;23.00;71.90;;;;;;3076878;29;19922;-80
2021/07/05 01:19:34;;;;;;;;;;;23.00;71.80;;;;;;3076758;28;19922;-80
2021/07/05 01:21:07;;;;;;;;;;;23.00;71.80;;;;;;3076518;29;20117;-80
2021/07/05 01:22:37;;;;;;;;;;;23.00;71.90;;;;;;3076977;29;19922;-80
2021/07/05 01:24:09;;;;;;;;;;;23.00;71.80;;;;;;3076857;28;20370;-80
2021/07/05 01:25:41;;;;;;;;;;;23.00;71.80;;;;;;3077084;29;19929;-82
2021/07/05 01:27:11;;;;;;;;;;;23.00;71.70;;;;;;3076950;28;20394;-81
2021/07/05 01:28:44;;;;;;;;;;;23.00;71.70;;;;;;3076992;29;20323;-80
2021/07/05 01:30:16;;;;;;;;;;;23.00;71.70;;;;;;3076829;29;19922;-80
2021/07/05 01:31:48;;;;;;;;;;;23.00;71.80;;;;;;3077286;29;20385;-80
2021/07/05 01:33:19;;;;;;;;;;;23.00;71.90;;;;;;3077595;29;19929;-80
2021/07/05 01:34:50;;;;;;;;;;;23.00;71.80;;;;;;3077091;28;20314;-80
2021/07/05 01:36:23;;;;;;;;;;;23.00;71.80;;;;;;3077047;29;19918;-80
2021/07/05 01:37:54;;;;;;;;;;;23.00;71.90;;;;;;3077413;28;19922;-80
2021/07/05 01:39:26;;;;;;;;;;;23.00;71.90;;;;;;3077481;29;19922;-80
2021/07/05 01:41:00;;;;;;;;;;;23.00;72.10;;;;;;3077377;28;19922;-82
2021/07/05 01:42:31;;;;;;;;;;;23.00;72.10;;;;;;3076901;28;19933;-82
2021/07/05 01:44:03;;;;;;;;;;;23.00;72.00;;;;;;3077196;28;20298;-80
2021/07/05 01:45:34;;;;;;;;;;;23.10;71.90;;;;;;3077644;29;20397;-80
2021/07/05 01:47:05;;;;;;;;;;;23.00;71.80;;;;;;3077401;29;19977;-81
2021/07/05 01:48:36;;;;;;;;;;;23.00;71.90;;;;;;3077604;29;19929;-80
2021/07/05 01:50:07;;;;;;;;;;;23.00;72.10;;;;;;3077628;29;20322;-82
2021/07/05 01:51:40;;;;;;;;;;;23.00;71.90;;;;;;3082609;28;19924;-80
2021/07/05 01:53:11;;;;;;;;;;;23.00;71.90;;;;;;3089319;28;20297;-80
2021/07/05 01:54:42;;;;;;;;;;;23.00;71.90;;;;;;3089559;28;19922;-80
2021/07/05 01:56:13;;;;;;;;;;;23.00;71.90;;;;;;3090079;28;19925;-80
2021/07/05 01:57:44;;;;;;;;;;;23.00;71.90;;;;;;3089693;28;19926;-80
2021/07/05 01:59:16;;;;;;;;;;;23.00;71.90;;;;;;3090035;28;20381;-79
2021/07/05 02:00:47;;;;;;;;;;;23.00;71.90;;;;;;3089393;28;19934;-80
2021/07/05 02:02:18;;;;;;;;;;;23.00;72.10;;;;;;3089514;28;19929;-80
2021/07/05 02:03:49;;;;;;;;;;;22.90;71.80;;;;;;3089655;28;19925;-80
2021/07/05 02:05:21;;;;;;;;;;;23.00;72.40;;;;;;3089580;28;19929;-81
2021/07/05 02:06:54;;;;;;;;;;;23.00;72.10;;;;;;3089846;28;19922;-80
2021/07/05 02:08:25;;;;;;;;;;;23.00;72.20;;;;;;3089792;28;20366;-79
2021/07/05 02:09:56;;;;;;;;;;;23.00;72.10;;;;;;3089388;28;19922;-79
2021/07/05 02:11:27;;;;;;;;;;;23.00;72.00;;;;;;3089352;28;20279;-80
2021/07/05 02:12:59;;;;;;;;;;;23.00;72.00;;;;;;3090054;28;20294;-79
2021/07/05 02:14:30;;;;;;;;;;;23.00;71.90;;;;;;3089727;28;19918;-80
2021/07/05 02:16:02;;;;;;;;;;;23.00;71.80;;;;;;3088092;28;19922;-81
2021/07/05 02:17:33;;;;;;;;;;;23.00;71.90;;;;;;3086764;28;19922;-80
2021/07/05 02:19:04;;;;;;;;;;;23.00;71.90;;;;;;3087578;28;19918;-80
2021/07/05 02:20:36;;;;;;;;;;;23.00;71.80;;;;;;3087619;28;19922;-81
2021/07/05 02:22:08;;;;;;;;;;;23.00;71.70;;;;;;3087458;28;19929;-80
2021/07/05 02:23:39;;;;;;;;;;;23.10;71.80;;;;;;3087815;28;19933;-80
2021/07/05 02:25:10;;;;;;;;;;;23.10;71.90;;;;;;3087599;28;19929;-80
2021/07/05 02:26:42;;;;;;;;;;;23.10;71.90;;;;;;3087705;28;19918;-80
2021/07/05 02:28:14;;;;;;;;;;;23.00;71.80;;;;;;3088369;28;19926;-79
2021/07/05 02:29:46;;;;;;;;;;;23.10;71.80;;;;;;3088558;28;19922;-79
2021/07/05 02:31:17;;;;;;;;;;;23.10;71.90;;;;;;3088634;28;19929;-80
2021/07/05 02:32:48;;;;;;;;;;;23.10;71.90;;;;;;3088326;28;20313;-81
2021/07/05 02:34:19;;;;;;;;;;;23.00;71.80;;;;;;3088639;28;19918;-80
2021/07/05 02:35:51;;;;;;;;;;;23.00;71.80;;;;;;3088608;28;19929;-81
2021/07/05 02:37:24;;;;;;;;;;;23.00;71.90;;;;;;3088843;28;19921;-80
2021/07/05 02:38:55;;;;;;;;;;;23.00;71.80;;;;;;3088832;28;19922;-80
2021/07/05 02:40:28;;;;;;;;;;;23.00;71.80;;;;;;3088484;28;19921;-80
2021/07/05 02:41:59;;;;;;;;;;;23.10;71.70;;;;;;3089246;28;19929;-82
2021/07/05 02:43:30;;;;;;;;;;;23.00;71.80;;;;;;3088963;28;20302;-79
2021/07/05 02:45:01;;;;;;;;;;;23.00;71.80;;;;;;3088645;28;19944;-80
2021/07/05 02:46:33;;;;;;;;;;;23.00;71.80;;;;;;3088322;28;19933;-80
2021/07/05 02:48:05;;;;;;;;;;;23.00;71.90;;;;;;3089151;28;19933;-80
2021/07/05 02:49:35;;;;;;;;;;;23.00;71.80;;;;;;3089164;28;20294;-79
2021/07/05 02:51:08;;;;;;;;;;;23.00;71.80;;;;;;3087815;28;19918;-80
2021/07/05 02:52:40;;;;;;;;;;;23.00;72.10;;;;;;3077384;28;19928;-79
2021/07/05 02:54:11;;;;;;;;;;;23.00;72.10;;;;;;3077139;28;19923;-80
2021/07/05 02:55:43;;;;;;;;;;;23.00;72.10;;;;;;3077034;28;19929;-80
2021/07/05 02:57:29;;;;;;;;;;;23.00;72.00;;;;;;3077652;28;20302;-80
2021/07/05 02:59:00;;;;;;;;;;;23.00;72.00;;;;;;3077268;28;19925;-82
2021/07/05 03:00:32;;;;;;;;;;;23.00;72.00;;;;;;3077408;28;20402;-80
2021/07/05 03:02:04;;;;;;;;;;;23.00;72.00;;;;;;3077345;28;19929;-80
2021/07/05 03:03:35;;;;;;;;;;;23.00;72.10;;;;;;3077084;28;19922;-80
2021/07/05 03:05:07;;;;;;;;;;;22.90;72.70;;;;;;3076973;28;19922;-79
2021/07/05 03:06:39;;;;;;;;;;;23.00;71.90;;;;;;3079618;28;19919;-82
2021/07/05 03:08:10;;;;;;;;;;;23.00;72.10;;;;;;3079996;28;20314;-80
2021/07/05 03:09:42;;;;;;;;;;;23.00;72.20;;;;;;3079744;28;19978;-80
2021/07/05 03:11:13;;;;;;;;;;;22.90;72.20;;;;;;3080122;28;19923;-78
2021/07/05 03:12:44;;;;;;;;;;;23.00;72.40;;;;;;3079880;28;19926;-81
2021/07/05 03:14:16;;;;;;;;;;;23.00;72.30;;;;;;3079689;28;19941;-79
2021/07/05 03:15:46;;;;;;;;;;;23.00;72.40;;;;;;3079882;28;19926;-80
2021/07/05 03:17:18;;;;;;;;;;;22.90;72.40;;;;;;3080169;28;19919;-79
2021/07/05 03:18:49;;;;;;;;;;;22.90;72.40;;;;;;3079352;28;19929;-79
2021/07/05 03:20:20;;;;;;;;;;;22.90;72.40;;;;;;3079871;28;19922;-80
2021/07/05 03:21:52;;;;;;;;;;;22.90;73.10;;;;;;3079031;28;19922;-80
2021/07/05 03:23:25;;;;;;;;;;;22.90;72.40;;;;;;3079297;28;20299;-80
2021/07/05 03:24:57;;;;;;;;;;;22.90;72.20;;;;;;3078891;28;19953;-80
2021/07/05 03:26:28;;;;;;;;;;;23.00;72.30;;;;;;3078975;28;20311;-82
2021/07/05 03:27:59;;;;;;;;;;;22.90;72.40;;;;;;3079109;28;19922;-80
2021/07/05 03:29:30;;;;;;;;;;;22.90;72.30;;;;;;3078904;28;19923;-82
2021/07/05 03:31:02;;;;;;;;;;;22.90;72.40;;;;;;3078560;28;19934;-80
2021/07/05 03:32:33;;;;;;;;;;;22.90;72.20;;;;;;3078837;28;19923;-79
2021/07/05 03:34:04;;;;;;;;;;;22.90;72.40;;;;;;3079149;28;19918;-80
2021/07/05 03:35:35;;;;;;;;;;;22.90;72.40;;;;;;3105825;23;20310;-79
2021/07/05 03:37:07;;;;;;;;;;;22.90;72.30;;;;;;3085302;28;19929;-79
2021/07/05 03:38:40;;;;;;;;;;;22.90;72.30;;;;;;3088976;28;19922;-82
2021/07/05 03:40:11;;;;;;;;;;;22.90;72.30;;;;;;3088239;28;19926;-81
2021/07/05 03:41:42;;;;;;;;;;;22.90;72.60;;;;;;3088849;28;19922;-82
2021/07/05 03:43:14;;;;;;;;;;;22.90;72.90;;;;;;3089281;28;19929;-82
2021/07/05 03:44:44;;;;;;;;;;;22.90;72.60;;;;;;3089160;28;19926;-82
2021/07/05 03:46:16;;;;;;;;;;;22.90;72.60;;;;;;3088860;28;19918;-81
2021/07/05 03:47:47;;;;;;;;;;;22.90;72.50;;;;;;3089510;28;19925;-82
2021/07/05 03:49:18;;;;;;;;;;;22.90;72.70;;;;;;3089076;28;20294;-82
2021/07/05 03:50:50;;;;;;;;;;;22.90;72.70;;;;;;3084195;28;19945;-82
2021/07/05 03:52:20;;;;;;;;;;;22.90;72.90;;;;;;3088871;28;19926;-82
2021/07/05 03:53:53;;;;;;;;;;;22.90;72.90;;;;;;3088994;28;19918;-82
2021/07/05 03:55:24;;;;;;;;;;;22.90;72.80;;;;;;3089278;28;19929;-82
2021/07/05 03:56:55;;;;;;;;;;;22.90;72.60;;;;;;3088555;28;19917;-82
2021/07/05 03:58:27;;;;;;;;;;;22.90;72.70;;;;;;3089166;28;19922;-82
2021/07/05 03:59:58;;;;;;;;;;;22.90;72.70;;;;;;3089615;28;19922;-82
2021/07/05 04:01:29;;;;;;;;;;;22.90;72.70;;;;;;3088743;28;19922;-82
2021/07/05 04:03:00;;;;;;;;;;;22.90;72.60;;;;;;3089053;28;19925;-82
2021/07/05 04:04:31;;;;;;;;;;;22.90;72.80;;;;;;3088749;28;19924;-80
2021/07/05 04:06:03;;;;;;;;;;;22.90;72.60;;;;;;3088562;28;19945;-81
2021/07/05 04:07:33;;;;;;;;;;;22.90;72.60;;;;;;3088367;28;19922;-81
2021/07/05 04:09:07;;;;;;;;;;;22.90;72.80;;;;;;3088811;28;19918;-82
2021/07/05 04:10:39;;;;;;;;;;;22.90;73.00;;;;;;3088607;28;19926;-81
2021/07/05 04:12:10;;;;;;;;;;;22.90;73.00;;;;;;3088672;28;19926;-81
2021/07/05 04:13:42;;;;;;;;;;;22.90;73.00;;;;;;3088730;28;19925;-81
2021/07/05 04:15:13;;;;;;;;;;;22.90;72.90;;;;;;3088918;28;20429;-81
2021/07/05 04:16:44;;;;;;;;;;;22.90;72.80;;;;;;3087956;28;19977;-81
2021/07/05 04:18:16;;;;;;;;;;;22.90;72.80;;;;;;3088212;28;20008;-81
2021/07/05 04:19:46;;;;;;;;;;;22.90;72.70;;;;;;3088721;28;20394;-81
2021/07/05 04:21:18;;;;;;;;;;;22.90;72.90;;;;;;3088089;28;19918;-81
2021/07/05 04:22:50;;;;;;;;;;;22.90;72.80;;;;;;3088846;28;20017;-81
2021/07/05 04:24:22;;;;;;;;;;;22.90;73.00;;;;;;3088728;28;19981;-81
2021/07/05 04:25:54;;;;;;;;;;;22.90;73.00;;;;;;3088500;28;19922;-81
2021/07/05 04:27:25;;;;;;;;;;;22.90;73.20;;;;;;3088301;28;19922;-81
2021/07/05 04:28:56;;;;;;;;;;;22.90;73.00;;;;;;3088843;28;19941;-81
2021/07/05 04:30:28;;;;;;;;;;;23.00;72.90;;;;;;3088147;28;19929;-82
2021/07/05 04:31:58;;;;;;;;;;;23.00;73.00;;;;;;3088303;28;19922;-82
2021/07/05 04:33:30;;;;;;;;;;;23.00;72.80;;;;;;3087426;28;19928;-81
2021/07/05 04:35:01;;;;;;;;;;;22.90;72.90;;;;;;3087536;28;19926;-81
2021/07/05 04:36:32;;;;;;;;;;;22.90;72.20;;;;;;3087947;28;19918;-82
2021/07/05 04:38:04;;;;;;;;;;;22.90;72.30;;;;;;3087439;28;20401;-81
2021/07/05 04:39:36;;;;;;;;;;;22.90;72.40;;;;;;3087674;28;19922;-81
2021/07/05 04:41:07;;;;;;;;;;;22.90;72.30;;;;;;3087614;28;19922;-81
2021/07/05 04:42:38;;;;;;;;;;;22.90;72.20;;;;;;3087571;28;19922;-81
2021/07/05 04:44:12;;;;;;;;;;;22.80;72.80;;;;;;3087721;28;19924;-81
2021/07/05 04:45:45;;;;;;;;;;;22.80;72.10;;;;;;3087715;28;20386;-81
2021/07/05 04:47:16;;;;;;;;;;;22.80;72.00;;;;;;3087848;28;19922;-81
2021/07/05 04:48:48;;;;;;;;;;;22.80;72.20;;;;;;3087622;28;19922;-81
2021/07/05 04:50:19;;;;;;;;;;;22.80;72.00;;;;;;3087408;28;19921;-81
2021/07/05 04:51:50;;;;;;;;;;;22.80;72.20;;;;;;3087763;28;19933;-79
2021/07/05 04:53:23;;;;;;;;;;;22.80;72.10;;;;;;3087541;28;19926;-79
2021/07/05 04:54:56;;;;;;;;;;;22.80;72.20;;;;;;3087572;28;20301;-80
2021/07/05 04:56:26;;;;;;;;;;;22.80;73.00;;;;;;3087533;28;19926;-79
2021/07/05 04:57:58;;;;;;;;;;;22.80;73.90;;;;;;3087762;28;19924;-80
2021/07/05 04:59:29;;;;;;;;;;;22.80;73.20;;;;;;3087591;28;20310;-79
2021/07/05 05:01:01;;;;;;;;;;;22.80;73.00;;;;;;3087224;28;19929;-79
2021/07/05 05:02:32;;;;;;;;;;;22.80;72.50;;;;;;3087545;28;19926;-79
2021/07/05 05:04:04;;;;;;;;;;;22.80;72.30;;;;;;3087863;28;19932;-79
2021/07/05 05:05:39;;;;;;;;;;;22.80;72.30;;;;;;3087497;28;20279;-79
2021/07/05 05:07:10;;;;;;;;;;;22.80;72.10;;;;;;3087340;28;19926;-79
2021/07/05 05:08:42;;;;;;;;;;;22.80;71.90;;;;;;3085337;28;19937;-79
2021/07/05 05:10:16;;;;;;;;;;;22.80;72.20;;;;;;3086803;28;19929;-79
2021/07/05 05:11:48;;;;;;;;;;;22.80;73.70;;;;;;3087160;28;19926;-79
2021/07/05 05:13:19;;;;;;;;;;;22.80;73.20;;;;;;3087295;28;19929;-79
2021/07/05 05:14:51;;;;;;;;;;;22.80;72.70;;;;;;3087277;28;20298;-79
2021/07/05 05:16:22;;;;;;;;;;;22.80;72.40;;;;;;3087475;28;19933;-79
2021/07/05 05:17:55;;;;;;;;;;;22.80;72.50;;;;;;3087263;28;19929;-79
2021/07/05 05:19:26;;;;;;;;;;;22.70;72.40;;;;;;3087159;28;19933;-78
2021/07/05 05:20:58;;;;;;;;;;;22.80;72.40;;;;;;3087241;28;19922;-79
2021/07/05 05:22:29;;;;;;;;;;;22.70;72.20;;;;;;3087368;28;19933;-78
2021/07/05 05:24:01;;;;;;;;;;;22.70;72.00;;;;;;3087395;28;20405;-78
2021/07/05 05:25:34;;;;;;;;;;;22.70;72.00;;;;;;3087176;28;19926;-79
2021/07/05 05:27:05;;;;;;;;;;;22.70;71.90;;;;;;3087038;28;19922;-79
2021/07/05 05:28:37;;;;;;;;;;;22.70;71.90;;;;;;3086870;28;19924;-79
2021/07/05 05:30:08;;;;;;;;;;;22.70;71.90;;;;;;3086862;28;19926;-79
2021/07/05 05:31:40;;;;;;;;;;;22.70;72.10;;;;;;3087037;28;19917;-79
2021/07/05 05:33:11;;;;;;;;;;;22.70;72.00;;;;;;3087432;28;19929;-79
2021/07/05 05:34:42;;;;;;;;;;;22.70;72.20;;;;;;3087081;28;19926;-79
2021/07/05 05:36:13;;;;;;;;;;;22.70;72.10;;;;;;3086887;28;20405;-79
2021/07/05 05:37:44;;;;;;;;;;;22.70;72.00;;;;;;3087011;28;20004;-79
2021/07/05 05:39:15;;;;;;;;;;;22.70;72.10;;;;;;3087077;28;20005;-79
2021/07/05 05:40:48;;;;;;;;;;;22.60;72.10;;;;;;3086628;28;19922;-79
2021/07/05 05:42:19;;;;;;;;;;;22.70;72.00;;;;;;3086867;28;19933;-79
2021/07/05 05:43:50;;;;;;;;;;;22.60;72.00;;;;;;3087381;28;19918;-79
2021/07/05 05:45:21;;;;;;;;;;;22.60;72.10;;;;;;3087386;28;19922;-79
2021/07/05 05:46:52;;;;;;;;;;;22.60;72.00;;;;;;3087174;28;19928;-78
2021/07/05 05:48:24;;;;;;;;;;;22.70;72.10;;;;;;3087326;28;19922;-78
2021/07/05 05:49:55;;;;;;;;;;;22.70;72.40;;;;;;3087509;28;19926;-79
2021/07/05 05:51:31;;;;;;;;;;;22.60;72.20;;;;;;3086655;28;20041;-79
2021/07/05 05:53:02;;;;;;;;;;;22.60;72.40;;;;;;3085055;28;20008;-78
2021/07/05 05:54:33;;;;;;;;;;;22.70;72.70;;;;;;3086926;28;19922;-78
2021/07/05 05:56:06;;;;;;;;;;;22.70;72.50;;;;;;3086788;28;19918;-79
2021/07/05 05:57:37;;;;;;;;;;;22.70;72.50;;;;;;3086458;28;19929;-78
2021/07/05 05:59:10;;;;;;;;;;;22.70;72.60;;;;;;3087145;28;19925;-78
2021/07/05 06:00:41;;;;;;;;;;;22.70;72.50;;;;;;3086301;28;20584;-78
2021/07/05 06:02:13;;;;;;;;;;;22.60;72.40;;;;;;3086233;28;19980;-78
2021/07/05 06:03:44;;;;;;;;;;;22.70;72.50;;;;;;3086967;28;19922;-79
2021/07/05 06:05:16;;;;;;;;;;;22.60;72.40;;;;;;3086935;28;19933;-78
2021/07/05 06:06:47;;;;;;;;;;;22.70;72.50;;;;;;3087237;28;19929;-78
2021/07/05 06:08:18;;;;;;;;;;;22.60;72.40;;;;;;3084090;28;19922;-79
2021/07/05 06:09:49;;;;;;;;;;;22.60;72.40;;;;;;3086557;28;19921;-78
2021/07/05 06:11:22;;;;;;;;;;;22.60;72.50;;;;;;3086620;28;20389;-79
2021/07/05 06:12:54;;;;;;;;;;;22.70;72.60;;;;;;3086821;28;20306;-79
2021/07/05 06:14:25;;;;;;;;;;;22.70;72.10;;;;;;3087018;28;20406;-79
2021/07/05 06:15:57;;;;;;;;;;;22.60;72.60;;;;;;3086370;28;19929;-79
2021/07/05 06:17:27;;;;;;;;;;;22.60;72.20;;;;;;3086770;28;19937;-77
2021/07/05 06:18:59;;;;;;;;;;;22.60;73.10;;;;;;3087097;28;19918;-79
2021/07/05 06:20:29;;;;;;;;;;;22.70;73.20;;;;;;3086552;28;19922;-79
2021/07/05 06:22:02;;;;;;;;;;;22.70;73.80;;;;;;3086534;28;19918;-79
2021/07/05 06:23:34;;;;;;;;;;;22.70;73.40;;;;;;3086393;28;20396;-79
2021/07/05 06:25:07;;;;;;;;;;;22.80;73.30;;;;;;3085958;28;19922;-79
2021/07/05 06:26:40;;;;;;;;;;;22.80;73.40;;;;;;3086262;28;20302;-79
2021/07/05 06:28:11;;;;;;;;;;;22.80;73.10;;;;;;3086302;28;19922;-78
2021/07/05 06:29:43;;;;;;;;;;;22.80;73.00;;;;;;3086346;28;19926;-79
2021/07/05 06:31:15;;;;;;;;;;;22.80;72.70;;;;;;3085920;28;19922;-78
2021/07/05 06:32:46;;;;;;;;;;;22.80;72.80;;;;;;3086500;28;20416;-79
2021/07/05 06:34:18;;;;;;;;;;;22.80;72.80;;;;;;3086080;28;19925;-79
2021/07/05 06:35:49;;;;;;;;;;;22.90;72.80;;;;;;3086803;28;19922;-78
2021/07/05 06:37:20;;;;;;;;;;;22.90;72.70;;;;;;3086885;28;19922;-79
2021/07/05 06:38:51;;;;;;;;;;;22.90;73.30;;;;;;3086642;28;20306;-78
2021/07/05 06:40:22;;;;;;;;;;;22.80;72.60;;;;;;3087043;28;20534;-78
2021/07/05 06:41:55;;;;;;;;;;;22.80;72.60;;;;;;3089575;28;19921;-78
2021/07/05 06:43:27;;;;;;;;;;;22.80;72.60;;;;;;3089219;28;20405;-78
2021/07/05 06:44:58;;;;;;;;;;;22.80;72.40;;;;;;3089305;28;20295;-78
2021/07/05 06:46:30;;;;;;;;;;;22.80;71.80;;;;;;3089380;28;19926;-77
2021/07/05 06:48:01;;;;;;;;;;;22.70;71.80;;;;;;3089530;28;19922;-79
2021/07/05 06:49:33;;;;;;;;;;;22.70;72.00;;;;;;3089704;28;19929;-79
2021/07/05 06:51:04;;;;;;;;;;;22.70;72.30;;;;;;3089364;28;19921;-79
2021/07/05 06:52:35;;;;;;;;;;;22.70;72.30;;;;;;3090073;28;20374;-78
2021/07/05 06:54:06;;;;;;;;;;;22.60;72.10;;;;;;3089954;28;19925;-78
2021/07/05 06:55:38;;;;;;;;;;;22.70;72.20;;;;;;3089720;28;19922;-79
2021/07/05 06:57:29;;;;;;;;;;;22.70;72.10;;;;;;3089572;28;19929;-78
2021/07/05 06:59:00;;;;;;;;;;;22.60;72.00;;;;;;3089592;28;19928;-78
2021/07/05 07:00:32;;;;;;;;;;;22.60;72.00;;;;;;3089545;28;19929;-78
2021/07/05 07:02:04;;;;;;;;;;;22.60;72.10;;;;;;3089633;28;20283;-78
2021/07/05 07:03:35;;;;;;;;;;;22.60;72.00;;;;;;3089674;28;20374;-78
2021/07/05 07:05:06;;;;;;;;;;;22.60;72.10;;;;;;3089500;28;19977;-78
2021/07/05 07:06:38;;;;;;;;;;;22.60;71.90;;;;;;3089439;28;19918;-78
2021/07/05 07:08:09;;;;;;;;;;;22.60;71.90;;;;;;3089386;28;19929;-78
2021/07/05 07:09:40;;;;;;;;;;;22.60;71.90;;;;;;3089873;28;20294;-79
2021/07/05 07:11:12;;;;;;;;;;;22.60;72.00;;;;;;3089216;28;19922;-78
2021/07/05 07:12:48;;;;;;;;;;;22.60;71.90;;;;;;3089398;28;19933;-79
2021/07/05 07:14:20;;;;;;;;;;;22.60;71.90;;;;;;3089662;28;19921;-78
2021/07/05 07:15:53;;;;;;;;;;;22.60;71.90;;;;;;3088860;28;20036;-78
2021/07/05 07:17:29;;;;;;;;;;;22.60;71.80;;;;;;3089703;28;20013;-79
2021/07/05 07:19:16;;;;;;;;;;;22.60;71.90;;;;;;3089769;28;20298;-79
2021/07/05 07:20:47;;;;;;;;;;;22.60;72.00;;;;;;3088999;28;19918;-78
2021/07/05 07:22:19;;;;;;;;;;;22.60;71.90;;;;;;3089302;28;20338;-78
2021/07/05 07:23:50;;;;;;;;;;;22.60;72.00;;;;;;3089580;28;19917;-78
2021/07/05 07:25:22;;;;;;;;;;;22.50;71.90;;;;;;3089307;28;19922;-78
2021/07/05 07:26:53;;;;;;;;;;;22.60;72.00;;;;;;3089207;28;20302;-78
2021/07/05 07:28:25;;;;;;;;;;;22.60;72.00;;;;;;3089580;28;19929;-79
2021/07/05 07:29:57;;;;;;;;;;;22.60;71.90;;;;;;3089002;28;19929;-78
2021/07/05 07:31:28;;;;;;;;;;;22.50;71.90;;;;;;3088775;28;19922;-78
2021/07/05 07:32:59;;;;;;;;;;;22.50;72.00;;;;;;3089539;28;19929;-79
2021/07/05 07:34:30;;;;;;;;;;;22.50;71.90;;;;;;3089777;28;19918;-78
2021/07/05 07:36:02;;;;;;;;;;;22.50;71.90;;;;;;3089507;28;20302;-78
2021/07/05 07:37:35;;;;;;;;;;;22.50;72.00;;;;;;3089095;28;20060;-79
2021/07/05 07:39:09;;;;;;;;;;;22.50;71.90;;;;;;3089196;28;19928;-77
2021/07/05 07:40:41;;;;;;;;;;;22.50;72.00;;;;;;3088994;28;20362;-79
2021/07/05 07:42:13;;;;;;;;;;;22.50;71.90;;;;;;3089243;28;19973;-78
2021/07/05 07:43:46;;;;;;;;;;;22.50;72.00;;;;;;3088908;28;19922;-78
2021/07/05 07:45:18;;;;;;;;;;;22.50;72.00;;;;;;3089257;28;20433;-78
2021/07/05 07:46:49;;;;;;;;;;;22.50;72.00;;;;;;3089321;28;19949;-79
2021/07/05 07:48:20;;;;;;;;;;;22.50;71.90;;;;;;3089120;28;20379;-78
2021/07/05 07:49:51;;;;;;;;;;;22.50;72.00;;;;;;3089445;28;19925;-78
2021/07/05 07:51:23;;;;;;;;;;;22.50;72.00;;;;;;3088122;28;19933;-79
2021/07/05 07:52:56;;;;;;;;;;;22.50;72.00;;;;;;3088353;28;20321;-78
2021/07/05 07:54:28;;;;;;;;;;;22.50;72.00;;;;;;3088894;28;20342;-78
2021/07/05 07:55:59;;;;;;;;;;;22.50;72.00;;;;;;3089044;28;19929;-78
2021/07/05 07:57:30;;;;;;;;;;;22.50;72.00;;;;;;3089082;28;20017;-79
2021/07/05 07:59:03;;;;;;;;;;;22.50;72.00;;;;;;3089113;28;19945;-78
2021/07/05 08:00:33;;;;;;;;;;;22.50;72.00;;;;;;3088780;28;19928;-78
2021/07/05 08:02:05;;;;;;;;;;;22.50;72.00;;;;;;3089236;28;19918;-78
2021/07/05 08:03:36;;;;;;;;;;;22.50;72.00;;;;;;3088706;28;20389;-78
2021/07/05 08:05:08;;;;;;;;;;;22.50;72.00;;;;;;3089131;28;19929;-78
2021/07/05 08:06:39;;;;;;;;;;;22.40;71.90;;;;;;3088060;28;20527;-77
2021/07/05 08:08:13;;;;;;;;;;;22.50;72.00;;;;;;3088003;28;19926;-77
2021/07/05 08:09:44;;;;;;;;;;;22.50;72.00;;;;;;3085696;28;20342;-77
2021/07/05 08:11:15;;;;;;;;;;;22.50;72.10;;;;;;3087734;28;19945;-77
2021/07/05 08:12:47;;;;;;;;;;;22.50;72.40;;;;;;3088192;28;19918;-78
2021/07/05 08:14:19;;;;;;;;;;;22.50;72.10;;;;;;3080137;28;20449;-77
2021/07/05 08:15:52;;;;;;;;;;;22.50;72.10;;;;;;3088079;28;19922;-77
2021/07/05 08:17:24;;;;;;;;;;;22.50;72.10;;;;;;3088303;28;19928;-77
2021/07/05 08:18:55;;;;;;;;;;;22.60;72.80;;;;;;3088278;28;20047;-77
2021/07/05 08:20:26;;;;;;;;;;;22.60;73.20;;;;;;3088031;28;19929;-77
2021/07/05 08:21:57;;;;;;;;;;;22.60;73.00;;;;;;3088746;28;20286;-77
2021/07/05 08:23:28;;;;;;;;;;;22.60;72.30;;;;;;3088365;28;19922;-77
2021/07/05 08:25:00;;;;;;;;;;;22.60;72.20;;;;;;3088449;28;19925;-77
2021/07/05 08:26:31;;;;;;;;;;;22.60;72.00;;;;;;3088784;28;19929;-77
2021/07/05 08:28:03;;;;;;;;;;;22.60;72.10;;;;;;3088335;28;19926;-77
2021/07/05 08:29:36;;;;;;;;;;;22.50;72.20;;;;;;3088437;28;19928;-77
2021/07/05 08:31:08;;;;;;;;;;;22.50;72.00;;;;;;3088077;28;19929;-77
2021/07/05 08:32:38;;;;;;;;;;;22.50;72.10;;;;;;3088843;28;19961;-77
2021/07/05 08:34:10;;;;;;;;;;;22.50;72.00;;;;;;3088143;28;20382;-77
2021/07/05 08:35:41;;;;;;;;;;;22.50;71.90;;;;;;3087805;28;19949;-77
2021/07/05 08:37:12;;;;;;;;;;;22.50;71.90;;;;;;3087549;28;19933;-77
2021/07/05 08:38:44;;;;;;;;;;;22.50;71.90;;;;;;3088332;28;20374;-77
2021/07/05 08:40:14;;;;;;;;;;;22.50;71.90;;;;;;3087731;28;20301;-77
2021/07/05 08:41:46;;;;;;;;;;;22.50;71.70;;;;;;3079551;28;19922;-77
2021/07/05 08:43:17;;;;;;;;;;;22.50;71.80;;;;;;3087645;28;19929;-77
2021/07/05 08:44:50;;;;;;;;;;;22.50;71.80;;;;;;3087882;28;19922;-77
2021/07/05 08:46:22;;;;;;;;;;;22.50;71.80;;;;;;3088053;28;19926;-78
2021/07/05 08:47:54;;;;;;;;;;;22.50;71.80;;;;;;3077804;28;19926;-78
2021/07/05 08:49:25;;;;;;;;;;;22.50;71.80;;;;;;3076634;29;19929;-77
2021/07/05 08:50:56;;;;;;;;;;;22.50;71.70;;;;;;3075927;29;19923;-77
2021/07/05 08:52:28;;;;;;;;;;;22.50;71.70;;;;;;3076188;29;19922;-78